Location Isle ofWight, ISLE OF WIGHT, UK

ob UISISLE1 251815Z AUTO 24009G18KT CLR 11/08 A2994 RMK SLPNO 

2018.04.25 1815 UTC
Wind from the SW (239 degrees) at 10.2 MPH (9 KT) gusting to 21.0 MPH (18 KT)
Visibility    Mile(s)
Sky Conditions  clear
Temperature 51.9 F (11 C)
Dew Point 46.3 F (8 C)
Relative Humidity 81%
Pressure   29.943 in. Hg (1014 hPa)
Rain  0.00 in.
Daily Rain 0.000 in.

Station Name  Isle of Wight Weather
Longitude, Latitude  -1.27, 50.72
Elevation 45
Station URL http://www.isleofwightweather.co.uk
Software Type WeatherDisplay:10.37R